Time;durP1;ratioP1;P1;durP2;ratioP2;P2;SDS_P1;SDS_P2;PMS_P1;PMS_P2;Temp;Humidity;BMP_temperature;BMP_pressure;BME280_temperature;BME280_humidity;BME280_pressure;Samples;Min_cycle;Max_cycle;Signal;HPM_P1;HPM_P2
2021/10/17 00:00:28;;;;;;;0.53;0.53;;;4.20;43.30;;;;;;4802428;28;20231;-80
2021/10/17 00:02:51;;;;;;;0.30;0.30;;;;;;;;;;4837179;28;20257;-80
2021/10/17 00:05:15;;;;;;;0.33;0.33;;;3.90;42.60;;;;;;4820370;28;20230;-79
2021/10/17 00:07:38;;;;;;;0.30;0.30;;;4.10;43.10;;;;;;4837684;28;20742;-79
2021/10/17 00:10:01;;;;;;;0.30;0.30;;;3.70;42.40;;;;;;4820463;28;20246;-79
2021/10/17 00:12:23;;;;;;;0.30;0.30;;;;;;;;;;4820072;28;20208;-79
2021/10/17 00:14:49;;;;;;;0.30;0.30;;;3.90;42.40;;;;;;4837705;28;20601;-79
2021/10/17 00:17:12;;;;;;;0.30;0.30;;;;;;;;;;4819822;28;20203;-79
2021/10/17 00:19:35;;;;;;;0.20;0.20;;;3.90;42.60;;;;;;4804160;28;20208;-79
2021/10/17 00:21:58;;;;;;;0.40;0.40;;;3.90;42.50;;;;;;4836246;28;20199;-79
2021/10/17 00:24:21;;;;;;;0.30;0.30;;;;;;;;;;4819812;28;20230;-79
2021/10/17 00:26:43;;;;;;;0.20;0.20;;;3.80;42.60;;;;;;4837702;28;20201;-78
2021/10/17 00:29:06;;;;;;;0.30;0.30;;;3.50;41.90;;;;;;4819474;28;20207;-80
2021/10/17 00:31:30;;;;;;;0.23;0.23;;;3.70;41.90;;;;;;4812702;28;20253;-79
2021/10/17 00:33:53;;;;;;;0.23;0.23;;;;;;;;;;4819460;28;20596;-79
2021/10/17 00:36:17;;;;;;;0.40;0.40;;;3.70;42.40;;;;;;4836960;28;20190;-79
2021/10/17 00:38:40;;;;;;;0.20;0.20;;;;;;;;;;4819679;28;20205;-79
2021/10/17 00:41:02;;;;;;;0.40;0.40;;;3.70;42.00;;;;;;4819727;28;20712;-80
2021/10/17 00:43:25;;;;;;;0.20;0.20;;;3.70;41.60;;;;;;4819510;28;20257;-79
2021/10/17 00:45:47;;;;;;;0.20;0.20;;;3.40;41.30;;;;;;4803354;28;20231;-79
2021/10/17 00:48:11;;;;;;;0.30;0.30;;;3.90;42.20;;;;;;4786719;28;20200;-80
2021/10/17 00:50:35;;;;;;;0.37;0.37;;;3.80;42.50;;;;;;4819560;28;20637;-79
2021/10/17 00:52:58;;;;;;;0.40;0.40;;;;;;;;;;4837088;28;20209;-79
2021/10/17 00:55:22;;;;;;;0.20;0.20;;;4.60;42.40;;;;;;4819905;28;20236;-79
2021/10/17 00:57:46;;;;;;;0.30;0.30;;;3.60;42.10;;;;;;4819936;28;20194;-79
2021/10/17 01:00:10;;;;;;;0.20;0.20;;;3.50;42.00;;;;;;4819421;28;20223;-79
2021/10/17 01:02:33;;;;;;;0.23;0.23;;;;;;;;;;4835398;28;20570;-81
2021/10/17 01:04:59;;;;;;;0.30;0.30;;;3.90;41.80;;;;;;4819760;28;20199;-78
2021/10/17 01:07:21;;;;;;;0.30;0.30;;;3.60;41.50;;;;;;4818523;28;20207;-79
2021/10/17 01:09:44;;;;;;;0.20;0.20;;;3.60;41.30;;;;;;4819460;28;20245;-79
2021/10/17 01:12:11;;;;;;;0.20;0.20;;;;;;;;;;4819078;28;20207;-79
2021/10/17 01:14:34;;;;;;;0.30;0.30;;;3.80;40.90;;;;;;4819600;28;20199;-81
2021/10/17 01:16:57;;;;;;;0.43;0.43;;;3.90;41.10;;;;;;4822149;28;20246;-79
2021/10/17 01:19:21;;;;;;;0.20;0.20;;;4.50;41.10;;;;;;4823310;28;20199;-79
2021/10/17 01:21:51;;;;;;;0.30;0.30;;;3.90;41.50;;;;;;4822890;28;20692;-80
2021/10/17 01:24:14;;;;;;;0.30;0.30;;;3.60;41.60;;;;;;4806107;28;20219;-78
2021/10/17 01:26:37;;;;;;;0.30;0.30;;;;;;;;;;4806841;28;20224;-79
2021/10/17 01:29:00;;;;;;;0.30;0.30;;;4.00;42.00;;;;;;4823186;28;20581;-79
2021/10/17 01:31:34;;;;;;;0.30;0.30;;;4.20;41.50;;;;;;4806804;28;20259;-79
2021/10/17 01:33:56;;;;;;;0.30;0.30;;;4.10;42.00;;;;;;4806163;28;20283;-79
2021/10/17 01:36:19;;;;;;;0.30;0.30;;;4.80;42.20;;;;;;4822912;28;20254;-79
2021/10/17 01:38:43;;;;;;;0.20;0.20;;;4.10;42.20;;;;;;4822633;28;20562;-79
2021/10/17 01:41:05;;;;;;;0.30;0.30;;;4.00;42.20;;;;;;4822750;28;20258;-80
2021/10/17 01:43:30;;;;;;;0.30;0.30;;;;;;;;;;4805789;28;20274;-79
2021/10/17 01:46:00;;;;;;;0.30;0.30;;;4.00;42.60;;;;;;4806127;28;20192;-80
2021/10/17 01:48:25;;;;;;;0.30;0.30;;;;;;;;;;4807083;28;20207;-78
2021/10/17 01:50:47;;;;;;;0.30;0.30;;;4.00;42.00;;;;;;4806733;28;20196;-81
2021/10/17 01:53:12;;;;;;;0.30;0.30;;;5.30;42.80;;;;;;4805968;28;20196;-80
2021/10/17 01:55:36;;;;;;;0.30;0.30;;;4.10;41.80;;;;;;4806114;28;20192;-79
2021/10/17 01:57:59;;;;;;;0.30;0.30;;;4.00;41.50;;;;;;4822020;28;20254;-79
2021/10/17 02:00:22;;;;;;;0.37;0.37;;;;;;;;;;4822030;28;20219;-78
2021/10/17 02:02:44;;;;;;;0.30;0.30;;;4.20;41.80;;;;;;4838030;28;20766;-78
2021/10/17 02:05:15;;;;;;;0.20;0.20;;;4.20;41.50;;;;;;4822233;28;20207;-79
2021/10/17 02:07:41;;;;;;;0.20;0.20;;;4.00;41.60;;;;;;4819217;28;20261;-79
2021/10/17 02:10:07;;;;;;;0.20;0.20;;;4.20;42.40;;;;;;4819460;28;20226;-79
2021/10/17 02:12:31;;;;;;;0.20;0.20;;;4.20;42.50;;;;;;4809312;28;20191;-78
2021/10/17 02:14:54;;;;;;;0.20;0.20;;;;;;;;;;4815682;28;20191;-79
2021/10/17 02:17:19;;;;;;;0.20;0.20;;;3.90;41.70;;;;;;4819865;28;20685;-78
2021/10/17 02:19:43;;;;;;;0.20;0.20;;;5.10;42.00;;;;;;4819538;28;20195;-79
2021/10/17 02:22:07;;;;;;;0.20;0.20;;;4.10;41.80;;;;;;4803129;28;20661;-79
2021/10/17 02:24:30;;;;;;;0.20;0.20;;;4.20;41.60;;;;;;4803723;28;20195;-79
2021/10/17 02:26:52;;;;;;;0.30;0.30;;;4.60;41.70;;;;;;4802463;28;20203;-78
2021/10/17 02:29:43;;;;;;;0.17;0.17;;;4.20;42.10;;;;;;4821385;28;20199;-78
2021/10/17 02:32:28;;;;;;;0.10;0.10;;;4.50;42.20;;;;;;4813095;28;20195;-78
2021/10/17 02:34:59;;;;;;;0.20;0.20;;;;;;;;;;4802951;28;20251;-78
2021/10/17 02:37:22;;;;;;;0.20;0.20;;;4.20;41.60;;;;;;4803559;28;20220;-81
2021/10/17 02:39:44;;;;;;;0.17;0.17;;;4.20;41.40;;;;;;4820611;28;20192;-78
2021/10/17 02:42:07;;;;;;;0.20;0.20;;;4.10;41.90;;;;;;4819713;28;20588;-79
2021/10/17 02:44:30;;;;;;;0.30;0.30;;;;;;;;;;4819499;28;20258;-78
2021/10/17 02:46:55;;;;;;;0.20;0.20;;;4.10;41.80;;;;;;4802742;28;20729;-78
2021/10/17 02:49:17;;;;;;;0.20;0.20;;;4.00;41.60;;;;;;4818638;28;20218;-78
2021/10/17 02:51:39;;;;;;;0.30;0.30;;;4.20;41.40;;;;;;4819242;28;20262;-79
2021/10/17 02:54:05;;;;;;;0.30;0.30;;;4.10;41.50;;;;;;4818524;28;20249;-77
2021/10/17 02:56:30;;;;;;;0.20;0.20;;;4.20;41.20;;;;;;4802918;28;20196;-78
2021/10/17 02:58:52;;;;;;;0.30;0.30;;;4.20;41.80;;;;;;4802368;28;20286;-79
2021/10/17 03:01:15;;;;;;;0.27;0.27;;;4.10;41.30;;;;;;4800620;28;20228;-78
2021/10/17 03:03:39;;;;;;;0.20;0.20;;;4.40;42.00;;;;;;4802760;28;20215;-79
2021/10/17 03:06:02;;;;;;;0.20;0.20;;;;;;;;;;4818848;28;20920;-78
2021/10/17 03:08:25;;;;;;;0.20;0.20;;;4.40;41.60;;;;;;4818023;28;20297;-78
2021/10/17 03:10:48;;;;;;;0.20;0.20;;;4.40;41.60;;;;;;4818134;28;20196;-81
2021/10/17 03:13:11;;;;;;;0.20;0.20;;;;;;;;;;4818393;28;20208;-78
2021/10/17 03:15:34;;;;;;;0.20;0.20;;;3.80;41.60;;;;;;4815759;28;20566;-78
2021/10/17 03:17:56;;;;;;;0.40;0.40;;;4.40;42.30;;;;;;4815206;28;20250;-79
2021/10/17 03:20:24;;;;;;;0.30;0.30;;;4.30;42.40;;;;;;4802428;28;20215;-79
2021/10/17 03:22:46;;;;;;;0.20;0.20;;;4.50;42.30;;;;;;4802242;28;20232;-79
2021/10/17 03:25:10;;;;;;;0.30;0.30;;;4.50;42.40;;;;;;4786215;28;20192;-79
2021/10/17 03:27:34;;;;;;;0.40;0.40;;;4.50;42.60;;;;;;4818106;28;20257;-80
2021/10/17 03:29:56;;;;;;;0.50;0.50;;;4.40;42.60;;;;;;4818166;28;20235;-79
2021/10/17 03:32:19;;;;;;;0.30;0.30;;;;;;;;;;4802169;28;20610;-78
2021/10/17 03:34:43;;;;;;;0.40;0.40;;;4.50;42.70;;;;;;4818639;28;20632;-78
2021/10/17 03:37:08;;;;;;;0.37;0.37;;;4.40;43.00;;;;;;4818027;28;20200;-81
2021/10/17 03:39:31;;;;;;;0.20;0.20;;;5.10;42.90;;;;;;4795069;28;20262;-80
2021/10/17 03:41:54;;;;;;;0.37;0.37;;;4.50;42.30;;;;;;4794879;28;20200;-79
2021/10/17 03:44:16;;;;;;;0.23;0.23;;;4.50;42.90;;;;;;4800255;28;20307;-79
2021/10/17 03:46:40;;;;;;;0.30;0.30;;;4.50;42.50;;;;;;4817557;28;20630;-78
2021/10/17 03:49:03;;;;;;;0.30;0.30;;;4.70;42.70;;;;;;4801722;28;20693;-81
2021/10/17 03:51:27;;;;;;;0.30;0.30;;;4.70;42.80;;;;;;4817579;28;20250;-78
2021/10/17 03:53:55;;;;;;;0.33;0.33;;;4.60;43.20;;;;;;4818057;28;20657;-79
2021/10/17 03:56:18;;;;;;;0.20;0.20;;;;;;;;;;4818582;28;20195;-82
2021/10/17 03:58:41;;;;;;;0.40;0.40;;;;;;;;;;4817685;28;20196;-78
2021/10/17 04:01:04;;;;;;;0.40;0.40;;;4.70;43.10;;;;;;4815834;28;20755;-78
2021/10/17 04:03:27;;;;;;;0.37;0.37;;;;;;;;;;4817523;28;20293;-78
2021/10/17 04:05:51;;;;;;;0.30;0.30;;;4.70;43.50;;;;;;4801179;28;20243;-78
2021/10/17 04:08:14;;;;;;;0.30;0.30;;;4.60;43.20;;;;;;4827515;28;20272;-78
2021/10/17 04:10:38;;;;;;;0.30;0.30;;;4.60;43.30;;;;;;4820197;28;20609;-78
2021/10/17 04:13:21;;;;;;;0.20;0.20;;;4.40;43.10;;;;;;4822858;28;20190;-79
2021/10/17 04:16:04;;;;;;;0.30;0.30;;;4.50;43.40;;;;;;4822732;28;20767;-80
2021/10/17 04:18:47;;;;;;;0.30;0.30;;;;;;;;;;4818125;28;20535;-78
2021/10/17 04:21:30;;;;;;;0.20;0.20;;;4.40;43.60;;;;;;4823037;28;20182;-78
2021/10/17 04:24:14;;;;;;;0.30;0.30;;;;;;;;;;4822513;28;20203;-78
2021/10/17 04:26:58;;;;;;;0.30;0.30;;;4.30;43.10;;;;;;4822470;28;20645;-78
2021/10/17 04:29:41;;;;;;;0.30;0.30;;;4.30;43.70;;;;;;4817225;28;20549;-78
2021/10/17 04:32:24;;;;;;;0.30;0.30;;;4.30;43.20;;;;;;4822646;28;20187;-80
2021/10/17 04:35:08;;;;;;;0.30;0.30;;;4.10;43.20;;;;;;4837084;28;20547;-78
2021/10/17 04:37:31;;;;;;;0.30;0.30;;;;;;;;;;4799581;28;20296;-78
2021/10/17 04:39:53;;;;;;;0.33;0.33;;;4.20;43.60;;;;;;4833042;28;20183;-80
2021/10/17 04:42:17;;;;;;;0.40;0.40;;;4.10;43.30;;;;;;4837152;28;20237;-78
2021/10/17 04:44:40;;;;;;;0.37;0.37;;;4.00;43.20;;;;;;4819461;28;20218;-79
2021/10/17 04:47:03;;;;;;;0.20;0.20;;;3.90;43.30;;;;;;4819896;28;20195;-79
2021/10/17 04:49:26;;;;;;;0.37;0.37;;;4.00;42.80;;;;;;4819529;28;20199;-78
2021/10/17 04:51:48;;;;;;;0.20;0.20;;;4.40;43.20;;;;;;4819784;28;20183;-78
2021/10/17 04:54:11;;;;;;;0.20;0.20;;;;;;;;;;4818949;28;20747;-78
2021/10/17 04:56:34;;;;;;;0.20;0.20;;;4.70;43.00;;;;;;4837197;28;20221;-79
2021/10/17 04:58:58;;;;;;;0.40;0.40;;;3.80;43.10;;;;;;4819676;28;20244;-78
2021/10/17 05:01:21;;;;;;;0.30;0.30;;;4.00;42.60;;;;;;4801332;28;20215;-79
2021/10/17 05:03:44;;;;;;;0.20;0.20;;;4.10;42.60;;;;;;4819402;28;20219;-79
2021/10/17 05:06:07;;;;;;;0.27;0.27;;;4.20;42.70;;;;;;4819336;28;20677;-79
2021/10/17 05:08:30;;;;;;;0.20;0.20;;;;;;;;;;4787837;28;20306;-80
2021/10/17 05:10:53;;;;;;;0.37;0.37;;;4.40;42.70;;;;;;4803485;28;20244;-79
2021/10/17 05:13:16;;;;;;;0.30;0.30;;;4.10;42.70;;;;;;4819437;28;20689;-79
2021/10/17 05:15:41;;;;;;;0.30;0.30;;;4.00;43.00;;;;;;4837055;28;20195;-79
2021/10/17 05:18:04;;;;;;;0.30;0.30;;;;;;;;;;4812276;28;20211;-80
2021/10/17 05:20:26;;;;;;;0.23;0.23;;;4.30;43.00;;;;;;4836967;28;20252;-79
2021/10/17 05:22:51;;;;;;;0.40;0.40;;;;;;;;;;4787110;28;20239;-79
2021/10/17 05:25:14;;;;;;;0.30;0.30;;;;;;;;;;4819340;28;20227;-78
2021/10/17 05:27:38;;;;;;;0.30;0.30;;;;;;;;;;4819153;28;20261;-79
2021/10/17 05:30:01;;;;;;;0.30;0.30;;;4.40;42.90;;;;;;4803058;28;20188;-79
2021/10/17 05:32:27;;;;;;;0.30;0.30;;;4.40;43.10;;;;;;4803333;28;20271;-79
2021/10/17 05:34:50;;;;;;;0.20;0.20;;;4.30;43.20;;;;;;4818910;28;20207;-79
2021/10/17 05:37:13;;;;;;;0.23;0.23;;;4.40;42.90;;;;;;4802964;28;20235;-79
2021/10/17 05:39:36;;;;;;;0.40;0.40;;;;;;;;;;4803000;28;20192;-79
2021/10/17 05:42:01;;;;;;;0.30;0.30;;;4.50;43.30;;;;;;4819535;28;20254;-79
2021/10/17 05:44:23;;;;;;;0.27;0.27;;;4.50;43.10;;;;;;4819358;28;20285;-78
2021/10/17 05:46:47;;;;;;;0.30;0.30;;;4.70;43.20;;;;;;4819273;28;20257;-79
2021/10/17 05:49:11;;;;;;;0.30;0.30;;;4.70;43.60;;;;;;4802485;28;20195;-78
2021/10/17 05:51:34;;;;;;;0.30;0.30;;;4.70;44.10;;;;;;4819741;28;20203;-82
2021/10/17 05:53:56;;;;;;;0.20;0.20;;;4.60;44.00;;;;;;4818934;28;20196;-78
2021/10/17 05:56:19;;;;;;;0.27;0.27;;;;;;;;;;4819365;28;20724;-79
2021/10/17 05:58:42;;;;;;;0.20;0.20;;;;;;;;;;4803152;28;20192;-79
2021/10/17 06:01:05;;;;;;;0.30;0.30;;;;;;;;;;4801372;28;20212;-82
2021/10/17 06:03:34;;;;;;;0.30;0.30;;;4.80;44.30;;;;;;4807087;28;20238;-78
2021/10/17 06:06:19;;;;;;;0.20;0.20;;;5.00;44.30;;;;;;4821986;28;20642;-82
2021/10/17 06:08:42;;;;;;;0.20;0.20;;;4.80;44.70;;;;;;4822655;28;20618;-79
2021/10/17 06:11:05;;;;;;;0.30;0.30;;;4.80;44.60;;;;;;4821771;28;20223;-79
2021/10/17 06:13:28;;;;;;;0.30;0.30;;;4.90;44.30;;;;;;4814859;28;20211;-78
2021/10/17 06:15:51;;;;;;;0.20;0.20;;;;;;;;;;4822168;28;20222;-78
2021/10/17 06:18:17;;;;;;;0.30;0.30;;;5.10;44.50;;;;;;4822129;28;20238;-78
2021/10/17 06:20:39;;;;;;;0.20;0.20;;;;;;;;;;4805512;28;20196;-79
2021/10/17 06:23:03;;;;;;;0.20;0.20;;;5.20;44.90;;;;;;4821858;28;20239;-79
2021/10/17 06:25:26;;;;;;;0.20;0.20;;;5.30;44.60;;;;;;4811453;28;20211;-79
2021/10/17 06:27:49;;;;;;;0.30;0.30;;;5.30;44.70;;;;;;4817496;28;20187;-81
2021/10/17 06:30:12;;;;;;;0.30;0.30;;;5.20;45.20;;;;;;4821667;28;20195;-79
2021/10/17 06:32:35;;;;;;;0.30;0.30;;;;;;;;;;4805778;28;20242;-80
2021/10/17 06:34:58;;;;;;;0.20;0.20;;;5.40;44.80;;;;;;4819042;28;20230;-76
2021/10/17 06:37:20;;;;;;;0.20;0.20;;;5.30;44.80;;;;;;4838716;28;20643;-79
2021/10/17 06:39:45;;;;;;;0.20;0.20;;;5.40;44.80;;;;;;4806329;28;20199;-78
2021/10/17 06:42:13;;;;;;;0.30;0.30;;;5.30;44.80;;;;;;4805470;28;20204;-78
2021/10/17 06:44:50;;;;;;;0.20;0.20;;;5.50;45.00;;;;;;4821762;28;20215;-79
2021/10/17 06:47:13;;;;;;;0.30;0.30;;;6.10;45.00;;;;;;4805229;28;20732;-78
2021/10/17 06:49:37;;;;;;;0.30;0.30;;;;;;;;;;4821765;28;20199;-79
2021/10/17 06:52:04;;;;;;;0.43;0.40;;;5.80;45.20;;;;;;4821200;28;20191;-83
2021/10/17 06:54:26;;;;;;;0.30;0.30;;;5.70;45.20;;;;;;4822164;28;20203;-77
2021/10/17 06:56:50;;;;;;;0.20;0.20;;;6.00;45.40;;;;;;4821259;28;20199;-79
2021/10/17 06:59:13;;;;;;;0.30;0.30;;;5.80;45.50;;;;;;4821304;28;20203;-77
2021/10/17 07:01:36;;;;;;;0.30;0.30;;;5.70;45.30;;;;;;4803660;28;20196;-76
2021/10/17 07:03:59;;;;;;;0.30;0.30;;;5.70;45.60;;;;;;4821614;28;20254;-77
2021/10/17 07:06:32;;;;;;;0.23;0.23;;;5.70;45.40;;;;;;4821678;28;20272;-77
2021/10/17 07:09:02;;;;;;;0.40;0.40;;;;;;;;;;4805062;28;20267;-78
2021/10/17 07:11:34;;;;;;;0.27;0.27;;;5.40;45.60;;;;;;4821552;28;20204;-78
2021/10/17 07:14:04;;;;;;;0.30;0.30;;;6.10;45.70;;;;;;4801844;28;20196;-78
2021/10/17 07:16:32;;;;;;;0.30;0.30;;;;;;;;;;4805383;28;20697;-78
2021/10/17 07:18:55;;;;;;;0.37;0.37;;;6.40;46.00;;;;;;4805002;28;20188;-78
2021/10/17 07:21:17;;;;;;;0.30;0.30;;;6.60;46.10;;;;;;4820857;28;20273;-80
2021/10/17 07:23:41;;;;;;;0.30;0.30;;;;;;;;;;4820332;28;20207;-77
2021/10/17 07:26:04;;;;;;;0.30;0.30;;;;;;;;;;4820771;28;20277;-78
2021/10/17 07:28:26;;;;;;;0.30;0.30;;;;;;;;;;4805283;28;20666;-78
2021/10/17 07:30:58;;;;;;;0.40;0.40;;;6.80;46.50;;;;;;4820744;28;20657;-80
2021/10/17 07:33:21;;;;;;;0.30;0.30;;;;;;;;;;4819867;28;20227;-78
2021/10/17 07:35:43;;;;;;;0.20;0.20;;;6.60;46.30;;;;;;4804200;28;20243;-77
2021/10/17 07:38:07;;;;;;;0.20;0.20;;;7.30;46.90;;;;;;4803330;28;20222;-78
2021/10/17 07:40:29;;;;;;;0.30;0.30;;;;;;;;;;4819917;28;20215;-78
2021/10/17 07:42:54;;;;;;;0.23;0.23;;;7.30;47.10;;;;;;4820806;28;20203;-78
2021/10/17 07:45:21;;;;;;;0.40;0.40;;;;;;;;;;4819195;28;20704;-78
2021/10/17 07:47:54;;;;;;;0.27;0.27;;;7.40;47.00;;;;;;4820514;28;20200;-78
2021/10/17 07:50:17;;;;;;;0.30;0.30;;;7.10;46.90;;;;;;4821108;28;20207;-78
2021/10/17 07:52:42;;;;;;;0.20;0.20;;;6.80;47.20;;;;;;4820731;28;20254;-79
2021/10/17 07:55:17;;;;;;;0.23;0.23;;;7.30;47.20;;;;;;4806791;28;20198;-77
2021/10/17 07:57:50;;;;;;;0.30;0.30;;;6.90;47.00;;;;;;4821017;28;20199;-78
2021/10/17 08:00:17;;;;;;;0.30;0.30;;;7.10;47.10;;;;;;4821186;28;20661;-78
2021/10/17 08:02:39;;;;;;;0.20;0.20;;;;;;;;;;4837122;28;20182;-78
2021/10/17 08:05:04;;;;;;;0.30;0.30;;;7.00;47.40;;;;;;4820955;28;20243;-78
2021/10/17 08:07:27;;;;;;;0.30;0.30;;;7.60;47.60;;;;;;4820841;28;20199;-78
2021/10/17 08:09:51;;;;;;;0.27;0.27;;;;;;;;;;4820522;28;20208;-79
2021/10/17 08:12:14;;;;;;;0.40;0.40;;;7.40;47.70;;;;;;4820777;28;20239;-80
2021/10/17 08:14:37;;;;;;;0.30;0.30;;;7.60;47.70;;;;;;4820753;28;20207;-78
2021/10/17 08:17:00;;;;;;;0.30;0.30;;;7.90;47.90;;;;;;4820833;28;20203;-78
2021/10/17 08:19:43;;;;;;;0.33;0.33;;;;;;;;;;4820593;28;20265;-79
2021/10/17 08:22:11;;;;;;;0.40;0.40;;;8.00;48.60;;;;;;4820712;28;20767;-78
2021/10/17 08:24:33;;;;;;;0.33;0.33;;;7.80;48.60;;;;;;4787393;28;20239;-79
2021/10/17 08:26:56;;;;;;;0.47;0.47;;;8.20;48.20;;;;;;4834844;28;20804;-78
2021/10/17 08:29:27;;;;;;;0.30;0.30;;;8.70;48.80;;;;;;4817417;28;20203;-80
2021/10/17 08:31:51;;;;;;;0.30;0.30;;;;;;;;;;4819036;28;20245;-79
2021/10/17 08:34:13;;;;;;;0.40;0.40;;;9.00;49.00;;;;;;4819615;28;20258;-79
2021/10/17 08:36:37;;;;;;;0.30;0.30;;;;;;;;;;4819860;28;20203;-79
2021/10/17 08:39:03;;;;;;;0.23;0.23;;;8.40;49.10;;;;;;4819848;28;20274;-78
2021/10/17 08:41:40;;;;;;;0.40;0.40;;;8.70;49.10;;;;;;4836121;28;20194;-78
2021/10/17 08:44:08;;;;;;;0.33;0.33;;;;;;;;;;4819510;28;20195;-79
2021/10/17 08:46:43;;;;;;;0.30;0.30;;;9.10;49.30;;;;;;4819898;28;20219;-79
2021/10/17 08:49:09;;;;;;;0.40;0.40;;;9.10;49.50;;;;;;4819359;28;20247;-78
2021/10/17 08:51:32;;;;;;;0.37;0.37;;;;;;;;;;4803448;28;20850;-77
2021/10/17 08:53:59;;;;;;;0.30;0.30;;;9.50;49.30;;;;;;4819869;28;20188;-78
2021/10/17 08:56:27;;;;;;;0.30;0.30;;;9.00;49.40;;;;;;4819830;28;20269;-79
2021/10/17 08:58:50;;;;;;;0.40;0.40;;;;;;;;;;4820519;28;20203;-81
2021/10/17 09:01:20;;;;;;;0.40;0.40;;;9.80;49.40;;;;;;4818119;28;20204;-79
2021/10/17 09:03:53;;;;;;;0.30;0.30;;;9.20;49.30;;;;;;4804000;28;20203;-79
2021/10/17 09:06:19;;;;;;;0.23;0.23;;;9.60;50.10;;;;;;4803525;28;20219;-80
2021/10/17 09:08:47;;;;;;;0.40;0.40;;;9.70;49.80;;;;;;4817362;28;20289;-78
2021/10/17 09:11:10;;;;;;;0.40;0.40;;;9.80;50.10;;;;;;4812440;28;20683;-78
2021/10/17 09:13:34;;;;;;;0.30;0.30;;;9.40;49.70;;;;;;4837302;28;20214;-81
2021/10/17 09:15:57;;;;;;;0.40;0.40;;;10.50;49.60;;;;;;4836696;28;20640;-78
2021/10/17 09:18:21;;;;;;;0.30;0.30;;;10.50;49.70;;;;;;4819324;28;20270;-77
2021/10/17 09:20:58;;;;;;;0.37;0.37;;;10.80;49.90;;;;;;4819103;28;20238;-79
2021/10/17 09:23:42;;;;;;;0.33;0.33;;;11.00;50.00;;;;;;4803117;28;20250;-78
2021/10/17 09:26:12;;;;;;;0.50;0.50;;;11.20;50.80;;;;;;4802968;28;20733;-78
2021/10/17 09:28:37;;;;;;;0.30;0.30;;;11.20;51.10;;;;;;4829387;28;20200;-80
2021/10/17 09:31:01;;;;;;;0.50;0.50;;;11.30;51.20;;;;;;4818265;28;20252;-75
2021/10/17 09:33:24;;;;;;;4.07;1.30;;;;;;;;;;4835977;28;20281;-75
2021/10/17 09:35:47;;;;;;;15.40;3.73;;;;;;;;;;4802474;28;20200;-76
2021/10/17 09:38:37;;;;;;;10.07;1.73;;;11.60;51.40;;;;;;4808601;28;20183;-77
2021/10/17 09:41:14;;;;;;;11.93;2.40;;;12.00;51.30;;;;;;4822448;28;20643;-77
2021/10/17 09:43:54;;;;;;;12.37;4.50;;;12.20;51.80;;;;;;4806563;28;20563;-77
2021/10/17 09:46:23;;;;;;;0.90;0.70;;;12.30;52.10;;;;;;4821964;28;20329;-76
2021/10/17 09:48:46;;;;;;;0.77;0.77;;;12.50;51.50;;;;;;4822233;28;20642;-77
2021/10/17 09:51:13;;;;;;;1.67;1.30;;;12.60;52.40;;;;;;4821755;28;20207;-76
2021/10/17 09:53:43;;;;;;;0.87;0.77;;;13.10;52.20;;;;;;4840139;28;20229;-76
2021/10/17 09:56:07;;;;;;;0.80;0.80;;;12.70;52.50;;;;;;4839185;28;20252;-77
2021/10/17 09:58:30;;;;;;;0.37;0.37;;;13.10;52.70;;;;;;4840009;28;20191;-77
2021/10/17 10:00:54;;;;;;;0.20;0.20;;;13.70;53.70;;;;;;4837826;28;20669;-75
2021/10/17 10:03:20;;;;;;;0.30;0.30;;;13.30;53.10;;;;;;4838210;28;20256;-78
2021/10/17 10:05:43;;;;;;;0.40;0.40;;;14.70;54.30;;;;;;4821909;28;20211;-77
2021/10/17 10:08:08;;;;;;;0.30;0.30;;;14.90;54.00;;;;;;4839127;28;20219;-77
2021/10/17 10:10:31;;;;;;;0.33;0.33;;;14.60;54.40;;;;;;4811878;28;20184;-76
2021/10/17 10:12:57;;;;;;;0.23;0.23;;;14.80;55.30;;;;;;4818721;28;20262;-75
2021/10/17 10:15:20;;;;;;;0.20;0.20;;;15.10;55.40;;;;;;4822175;28;20230;-78
2021/10/17 10:17:47;;;;;;;0.20;0.20;;;15.10;55.80;;;;;;4839603;28;20237;-77
2021/10/17 10:20:10;;;;;;;0.20;0.20;;;15.40;55.80;;;;;;4839153;28;20606;-79
2021/10/17 10:22:33;;;;;;;0.20;0.20;;;;;;;;;;4821760;28;20204;-84
2021/10/17 10:24:57;;;;;;;0.30;0.30;;;15.40;57.00;;;;;;4839975;28;20595;-77
2021/10/17 10:27:21;;;;;;;0.17;0.17;;;15.30;56.40;;;;;;4822122;28;20227;-78
2021/10/17 10:29:43;;;;;;;0.20;0.20;;;15.30;56.90;;;;;;4821786;28;20908;-80
2021/10/17 10:32:07;;;;;;;0.70;0.70;;;15.60;56.80;;;;;;4838487;28;20220;-79
2021/10/17 10:35:05;;;;;;;0.67;0.67;;;16.50;57.80;;;;;;4824912;28;20200;-78
2021/10/17 10:37:30;;;;;;;0.57;0.50;;;16.40;57.60;;;;;;4815881;28;20194;-78
2021/10/17 10:40:22;;;;;;;1.00;0.80;;;16.30;57.80;;;;;;4838985;28;20183;-77
2021/10/17 10:42:48;;;;;;;0.80;0.60;;;16.30;58.00;;;;;;4746470;29;20262;-78
2021/10/17 10:45:32;;;;;;;1.73;1.13;;;16.20;57.70;;;;;;4814419;28;20198;-78
2021/10/17 10:48:22;;;;;;;1.07;0.70;;;15.90;57.80;;;;;;4837567;28;20628;-77
2021/10/17 10:50:48;;;;;;;1.33;0.77;;;15.80;57.90;;;;;;4827218;28;20684;-78
2021/10/17 10:53:11;;;;;;;1.87;1.17;;;15.10;56.90;;;;;;4805192;28;20281;-78
2021/10/17 10:55:46;;;;;;;0.77;0.60;;;15.30;57.70;;;;;;4839750;28;20182;-78
2021/10/17 10:58:25;;;;;;;4.17;1.67;;;15.10;57.50;;;;;;4838174;28;20189;-80
2021/10/17 11:00:48;;;;;;;4.77;1.70;;;;;;;;;;4817417;28;20217;-83
2021/10/17 11:03:13;;;;;;;4.60;1.83;;;15.00;57.20;;;;;;4835352;28;20229;-80
2021/10/17 11:05:35;;;;;;;4.43;1.57;;;14.40;57.10;;;;;;4837486;28;20194;-80
2021/10/17 11:08:13;;;;;;;6.53;1.73;;;14.80;57.20;;;;;;4804591;28;20230;-79
2021/10/17 11:10:38;;;;;;;1.57;0.57;;;14.60;56.40;;;;;;4832404;28;20182;-80
2021/10/17 11:13:02;;;;;;;10.63;2.17;;;14.50;56.90;;;;;;4803966;28;20204;-80
2021/10/17 11:15:27;;;;;;;9.83;3.47;;;15.30;57.40;;;;;;4820646;28;20207;-80
2021/10/17 11:17:51;;;;;;;25.07;9.60;;;16.60;58.00;;;;;;4821398;28;20234;-79
2021/10/17 11:20:18;;;;;;;3.63;1.03;;;18.70;58.20;;;;;;4838555;28;20217;-79
2021/10/17 11:22:40;;;;;;;3.30;0.83;;;21.20;59.30;;;;;;4838767;28;20240;-79
2021/10/17 11:25:05;;;;;;;5.70;1.40;;;23.00;61.30;;;;;;4818228;28;20250;-86
2021/10/17 11:27:30;;;;;;;5.07;1.17;;;;;;;;;;4818942;28;20215;-79
2021/10/17 11:29:52;;;;;;;5.43;1.27;;;;;;;;;;4820158;28;20339;-81
2021/10/17 11:32:17;;;;;;;4.53;1.20;;;21.40;60.30;;;;;;4816825;28;20195;-79
2021/10/17 11:34:40;;;;;;;3.70;1.10;;;;;;;;;;4837768;28;20254;-81
2021/10/17 11:37:18;;;;;;;5.83;1.63;;;20.40;60.70;;;;;;4837758;28;20192;-82
2021/10/17 11:39:59;;;;;;;2.97;0.83;;;21.50;60.30;;;;;;4832495;28;20206;-79
2021/10/17 11:42:24;;;;;;;5.50;1.47;;;21.90;60.60;;;;;;4820582;28;20327;-78
2021/10/17 11:44:47;;;;;;;3.60;1.07;;;21.90;61.10;;;;;;4819901;28;20673;-80
2021/10/17 11:47:09;;;;;;;6.70;1.87;;;21.30;60.30;;;;;;4818866;28;20211;-78
2021/10/17 11:49:32;;;;;;;5.20;1.50;;;;;;;;;;4830495;28;20192;-80
2021/10/17 11:52:04;;;;;;;4.80;1.40;;;20.90;60.80;;;;;;4833740;28;20191;-77
2021/10/17 11:54:41;;;;;;;3.00;0.97;;;22.30;61.00;;;;;;4820034;28;20204;-79
2021/10/17 11:57:04;;;;;;;6.07;1.80;;;;;;;;;;4819199;28;20653;-83
2021/10/17 11:59:28;;;;;;;3.07;1.00;;;25.10;47.10;;;;;;4819068;28;20306;-79
2021/10/17 12:01:51;;;;;;;3.07;0.90;;;;;;;;;;4818166;28;20206;-79
2021/10/17 12:04:14;;;;;;;2.00;0.70;;;24.10;62.10;;;;;;4812731;28;20625;-78
2021/10/17 12:06:36;;;;;;;1.63;0.57;;;;;;;;;;4818601;28;20230;-77
2021/10/17 12:09:01;;;;;;;3.23;1.03;;;22.40;60.70;;;;;;4837612;28;20255;-78
2021/10/17 12:11:25;;;;;;;3.27;1.10;;;21.50;60.50;;;;;;4834325;28;20189;-79
2021/10/17 12:14:03;;;;;;;5.40;1.57;;;;;;;;;;4815214;28;20263;-79
2021/10/17 12:16:34;;;;;;;2.00;0.80;;;21.40;61.10;;;;;;4806135;28;20205;-78
2021/10/17 12:19:00;;;;;;;3.73;1.33;;;20.90;60.90;;;;;;4811622;28;20253;-80
2021/10/17 12:21:24;;;;;;;3.37;1.27;;;20.40;60.70;;;;;;4829118;28;20758;-79
2021/10/17 12:23:48;;;;;;;2.00;0.83;;;19.90;60.40;;;;;;4828301;28;20187;-79
2021/10/17 12:26:21;;;;;;;4.10;1.60;;;19.50;60.20;;;;;;4812445;28;20203;-80
2021/10/17 12:28:44;;;;;;;2.17;0.80;;;;;;;;;;4825349;28;20229;-82
2021/10/17 12:31:06;;;;;;;4.83;1.97;;;;;;;;;;4835961;28;20175;-81
2021/10/17 12:33:33;;;;;;;2.80;1.13;;;21.80;61.10;;;;;;4819072;28;20594;-81
2021/10/17 12:35:56;;;;;;;3.03;1.10;;;;;;;;;;4815244;28;20188;-79
2021/10/17 12:38:18;;;;;;;4.80;1.67;;;27.10;48.20;;;;;;4818647;28;20546;-81
2021/10/17 12:40:52;;;;;;;4.60;1.63;;;25.90;47.60;;;;;;4836112;28;20186;-83
2021/10/17 12:43:15;;;;;;;4.37;1.50;;;28.40;48.30;;;;;;4819853;28;20201;-85
2021/10/17 12:45:38;;;;;;;2.27;0.97;;;;;;;;;;4812157;28;20257;-80
2021/10/17 12:48:01;;;;;;;4.67;1.70;;;30.30;49.80;;;;;;4802799;28;20230;-86
2021/10/17 12:50:28;;;;;;;3.80;1.23;;;29.50;49.60;;;;;;4799932;28;20254;-81
2021/10/17 12:52:55;;;;;;;2.30;0.97;;;27.80;48.40;;;;;;4816158;28;20206;-87
2021/10/17 12:55:18;;;;;;;3.60;1.37;;;;;;;;;;4829056;28;20193;-81
2021/10/17 12:57:41;;;;;;;2.03;0.80;;;;;;;;;;4830056;28;20185;-81
2021/10/17 13:00:05;;;;;;;5.03;1.80;;;24.90;62.90;;;;;;4835244;28;20730;-84
2021/10/17 13:02:36;;;;;;;6.33;2.40;;;23.40;62.20;;;;;;4800424;28;20193;-85
2021/10/17 13:04:59;;;;;;;3.47;1.53;;;22.10;60.90;;;;;;4818278;28;20985;-86
2021/10/17 13:07:32;;;;;;;2.10;0.90;;;21.40;60.70;;;;;;4828009;28;20217;-81